Time;durP1;ratioP1;P1;durP2;ratioP2;P2;SDS_P1;SDS_P2;PMS_P1;PMS_P2;Temp;Humidity;BMP_temperature;BMP_pressure;BME280_temperature;BME280_humidity;BME280_pressure;Samples;Min_cycle;Max_cycle;Signal;HPM_P1;HPM_P2
2023/06/11 00:01:42;;;;;;;5.87;1.90;;;;;;;18.96;56.86;101462.47;5032987;28;20956;-76
2023/06/11 00:04:12;;;;;;;6.60;2.13;;;;;;;18.94;57.98;101469.44;5033193;28;20462;-76
2023/06/11 00:06:40;;;;;;;5.60;1.33;;;;;;;18.89;57.89;101471.22;5033245;28;20447;-76
2023/06/11 00:09:07;;;;;;;5.40;1.57;;;;;;;18.82;57.73;101471.00;5032925;28;20971;-76
2023/06/11 00:11:41;;;;;;;5.80;1.90;;;;;;;18.79;58.37;101473.59;5032956;28;20451;-76
2023/06/11 00:14:08;;;;;;;6.63;1.60;;;;;;;18.73;58.49;101477.69;5032844;28;20935;-76
2023/06/11 00:16:36;;;;;;;7.67;2.77;;;;;;;18.72;58.67;101478.81;5032829;28;20453;-76
2023/06/11 00:19:04;;;;;;;5.33;1.63;;;;;;;18.57;59.47;101471.94;5033089;28;20447;-76
2023/06/11 00:21:31;;;;;;;6.30;1.97;;;;;;;18.57;59.55;101472.75;5032741;28;20978;-76
2023/06/11 00:24:00;;;;;;;6.37;2.20;;;;;;;18.52;60.25;101469.41;5032490;28;20490;-76
2023/06/11 00:26:26;;;;;;;5.77;1.97;;;;;;;18.45;59.36;101474.59;5033072;28;20522;-76
2023/06/11 00:28:53;;;;;;;7.37;2.73;;;;;;;18.43;60.73;101476.88;5033047;28;20526;-76
2023/06/11 00:31:20;;;;;;;7.23;2.20;;;;;;;18.31;61.69;101470.16;5033254;28;20534;-76
2023/06/11 00:33:46;;;;;;;5.60;1.73;;;;;;;18.27;61.96;101474.69;5032695;28;20443;-76
2023/06/11 00:36:13;;;;;;;6.53;2.20;;;;;;;18.25;61.00;101473.44;5032536;28;20471;-76
2023/06/11 00:38:40;;;;;;;5.87;2.03;;;;;;;18.21;60.56;101480.72;5032636;28;20943;-76
2023/06/11 00:41:09;;;;;;;6.80;2.20;;;;;;;18.13;61.37;101471.41;5036481;28;20473;-76
2023/06/11 00:43:37;;;;;;;6.20;2.27;;;;;;;18.10;62.11;101472.84;5036420;28;20581;-76
2023/06/11 00:46:10;;;;;;;5.33;1.70;;;;;;;18.02;61.77;101478.41;5036110;28;20529;-76
2023/06/11 00:48:37;;;;;;;6.13;1.60;;;;;;;17.97;62.38;101481.28;5036482;28;20471;-76
2023/06/11 00:51:05;;;;;;;6.80;2.13;;;;;;;18.04;62.33;101476.13;5036355;28;20525;-76
2023/06/11 00:53:31;;;;;;;7.20;2.20;;;;;;;17.99;62.87;101477.09;5036365;28;20526;-76
2023/06/11 00:55:58;;;;;;;7.30;2.10;;;;;;;17.94;62.54;101484.72;5036122;28;20538;-76
2023/06/11 00:58:27;;;;;;;5.57;1.27;;;;;;;17.94;61.42;101481.97;5036123;28;20435;-76
2023/06/11 01:00:57;;;;;;;7.47;2.37;;;;;;;17.87;61.83;101477.00;5035965;28;20967;-76
2023/06/11 01:03:28;;;;;;;7.07;1.97;;;;;;;17.83;61.89;101485.06;5036078;28;20487;-76
2023/06/11 01:06:01;;;;;;;8.10;2.10;;;;;;;17.76;60.91;101481.22;5036113;28;20467;-76
2023/06/11 01:08:30;;;;;;;5.43;1.83;;;;;;;17.75;60.36;101480.44;5035742;28;20954;-76
2023/06/11 01:10:59;;;;;;;6.00;1.83;;;;;;;17.71;60.58;101476.72;5035944;28;20445;-76
2023/06/11 01:13:27;;;;;;;5.50;1.77;;;;;;;17.67;60.29;101483.16;5036042;28;20439;-76
2023/06/11 01:15:59;;;;;;;6.50;2.00;;;;;;;17.66;60.17;101479.59;5035522;28;20509;-76
2023/06/11 01:18:37;;;;;;;7.27;2.20;;;;;;;17.66;59.74;101485.06;5035528;28;20432;-76
2023/06/11 01:21:12;;;;;;;6.37;1.80;;;;;;;17.63;60.31;101486.56;5035757;28;20431;-76
2023/06/11 01:23:41;;;;;;;7.07;1.90;;;;;;;17.61;59.92;101482.53;5035715;28;20489;-76
2023/06/11 01:26:34;;;;;;;5.97;1.70;;;;;;;17.66;59.58;101485.06;5035561;28;20538;-76
2023/06/11 01:29:07;;;;;;;5.30;1.70;;;;;;;17.69;59.40;101483.63;5035741;28;20442;-76
2023/06/11 01:31:38;;;;;;;8.17;2.30;;;;;;;17.68;59.02;101479.28;5035336;28;20928;-76
2023/06/11 01:34:05;;;;;;;9.07;2.17;;;;;;;17.65;59.26;101483.47;5035381;28;20444;-76
2023/06/11 01:36:34;;;;;;;6.40;1.67;;;;;;;17.65;58.99;101488.97;5035560;28;20416;-76
2023/06/11 01:39:01;;;;;;;10.10;2.53;;;;;;;17.65;58.81;101483.47;5035526;28;20443;-76
2023/06/11 01:41:28;;;;;;;5.67;1.80;;;;;;;17.64;59.20;101488.16;5035384;28;20449;-76
2023/06/11 01:43:55;;;;;;;7.27;2.13;;;;;;;17.63;59.97;101491.22;5034944;28;21062;-76
2023/06/11 01:46:23;;;;;;;6.57;2.27;;;;;;;17.66;60.81;101485.06;5034969;28;21028;-76
2023/06/11 01:48:50;;;;;;;6.37;1.97;;;;;;;17.63;60.36;101489.28;5035276;28;20443;-76
2023/06/11 01:51:17;;;;;;;5.77;2.10;;;;;;;17.61;60.46;101493.47;5034404;28;20530;-76
2023/06/11 01:53:44;;;;;;;7.33;2.13;;;;;;;17.59;60.75;101491.06;5035256;28;20439;-76
2023/06/11 01:56:11;;;;;;;7.87;2.77;;;;;;;17.63;61.10;101491.22;5035071;28;20483;-76
2023/06/11 01:58:38;;;;;;;8.27;2.50;;;;;;;17.58;61.41;101499.63;5035218;28;20546;-76
2023/06/11 02:01:08;;;;;;;6.30;1.73;;;;;;;17.50;61.49;101484.00;5035080;28;20453;-76
2023/06/11 02:03:36;;;;;;;7.17;2.07;;;;;;;17.45;62.03;101493.22;5035343;28;20924;-76
2023/06/11 02:06:02;;;;;;;6.50;2.13;;;;;;;17.39;61.27;101491.75;5034868;28;20481;-76
2023/06/11 02:08:29;;;;;;;16.40;2.57;;;;;;;17.29;60.29;101501.09;5034925;28;20529;-76
2023/06/11 02:10:56;;;;;;;5.57;1.53;;;;;;;17.23;61.17;101496.94;5034507;28;20510;-75
2023/06/11 02:13:22;;;;;;;6.60;2.40;;;;;;;17.25;61.37;101502.88;5034838;28;20810;-75
2023/06/11 02:15:49;;;;;;;6.73;2.63;;;;;;;17.14;61.95;101505.16;5034274;28;21058;-75
2023/06/11 02:18:15;;;;;;;6.73;1.60;;;;;;;17.14;62.82;101507.09;5034714;28;20481;-76
2023/06/11 02:20:43;;;;;;;7.30;2.10;;;;;;;17.02;62.60;101501.44;5034466;28;20952;-76
2023/06/11 02:23:10;;;;;;;6.30;1.87;;;;;;;16.96;62.70;101506.28;5034328;28;20991;-76
2023/06/11 02:25:37;;;;;;;7.80;2.50;;;;;;;16.83;63.29;101502.56;5034253;28;20495;-76
2023/06/11 02:28:06;;;;;;;8.07;2.53;;;;;;;16.71;63.08;101502.34;5034481;28;20542;-75
2023/06/11 02:30:32;;;;;;;6.10;1.70;;;;;;;16.63;62.15;101501.22;5034408;28;20439;-75
2023/06/11 02:32:59;;;;;;;6.20;1.63;;;;;;;16.53;62.76;101511.66;5034110;28;21011;-75
2023/06/11 02:35:26;;;;;;;6.87;2.00;;;;;;;16.46;64.78;101516.78;5033853;28;20471;-76
2023/06/11 02:37:54;;;;;;;7.20;2.20;;;;;;;16.37;65.46;101516.75;5034355;28;20595;-75
2023/06/11 02:40:20;;;;;;;8.37;2.30;;;;;;;16.29;66.47;101517.53;5034000;28;20436;-75
2023/06/11 02:42:47;;;;;;;5.80;2.10;;;;;;;16.26;66.97;101507.25;5034181;28;20447;-75
2023/06/11 02:45:13;;;;;;;5.97;2.03;;;;;;;16.26;66.63;101508.06;5034187;28;20562;-75
2023/06/11 02:47:40;;;;;;;6.83;2.03;;;;;;;16.17;67.43;101506.41;5033866;28;20952;-75
2023/06/11 02:50:07;;;;;;;7.90;1.90;;;;;;;16.15;66.91;101512.19;5033778;28;20813;-75
2023/06/11 02:52:34;;;;;;;8.80;2.73;;;;;;;16.10;67.56;101509.59;5034142;28;20439;-75
2023/06/11 02:55:02;;;;;;;5.70;2.10;;;;;;;16.05;67.77;101512.47;5033663;28;20463;-75
2023/06/11 02:57:30;;;;;;;6.73;2.10;;;;;;;16.03;68.24;101512.00;5033998;28;20451;-75
2023/06/11 02:59:56;;;;;;;9.67;2.40;;;;;;;15.98;68.91;101523.03;5033960;28;20501;-75
2023/06/11 03:02:23;;;;;;;7.93;2.53;;;;;;;15.82;70.64;101518.00;5033754;28;20443;-75
2023/06/11 03:04:50;;;;;;;9.23;2.10;;;;;;;15.89;74.43;101517.53;5033683;28;20502;-75
2023/06/11 03:07:16;;;;;;;8.13;1.90;;;;;;;15.94;78.68;101511.94;5034460;28;20471;-75
2023/06/11 03:09:43;;;;;;;7.60;2.00;;;;;;;15.93;80.11;101518.50;5034597;28;20877;-75
2023/06/11 03:12:12;;;;;;;6.80;2.23;;;;;;;15.76;80.19;101518.41;5033853;28;20542;-76
2023/06/11 03:14:39;;;;;;;9.50;2.10;;;;;;;15.71;83.20;101522.09;5033406;28;20866;-76
2023/06/11 03:17:05;;;;;;;6.27;2.07;;;;;;;15.62;83.66;101518.47;5033743;28;20534;-75
2023/06/11 03:19:32;;;;;;;6.27;2.27;;;;;;;15.51;85.27;101523.41;5033746;28;20443;-76
2023/06/11 03:21:59;;;;;;;8.17;2.10;;;;;;;15.41;85.02;101525.59;5033600;28;20447;-75
2023/06/11 03:24:25;;;;;;;6.40;1.93;;;;;;;15.33;85.83;101524.41;5033706;28;20498;-75
2023/06/11 03:26:52;;;;;;;6.50;2.23;;;;;;;15.24;86.54;101527.06;5033541;28;20459;-76
2023/06/11 03:29:20;;;;;;;8.10;2.63;;;;;;;15.17;88.37;101528.59;5033571;28;20534;-76
2023/06/11 03:31:47;;;;;;;16.70;2.50;;;;;;;15.11;89.38;101530.63;5033160;28;20538;-75
2023/06/11 03:34:13;;;;;;;6.63;2.10;;;;;;;15.03;89.93;101523.19;5032896;28;20979;-76
2023/06/11 03:36:40;;;;;;;7.60;2.40;;;;;;;15.00;89.02;101526.53;5033094;28;20969;-75
2023/06/11 03:39:07;;;;;;;6.30;2.10;;;;;;;14.96;88.89;101530.97;5033400;28;20534;-75
2023/06/11 03:41:33;;;;;;;7.13;2.10;;;;;;;14.92;89.79;101529.97;5032953;28;20436;-75
2023/06/11 03:44:00;;;;;;;8.30;2.20;;;;;;;14.92;90.74;101521.78;5032916;28;20935;-76
2023/06/11 03:46:28;;;;;;;8.27;2.40;;;;;;;14.90;91.89;101524.81;5033483;28;20872;-76
2023/06/11 03:48:54;;;;;;;6.63;2.30;;;;;;;14.88;91.82;101524.34;5033293;28;20490;-76
2023/06/11 03:51:21;;;;;;;7.00;2.70;;;;;;;14.85;90.96;101527.69;5033355;28;20443;-76
2023/06/11 03:53:48;;;;;;;8.33;2.20;;;;;;;14.84;90.93;101523.34;5033478;28;20443;-77
2023/06/11 03:56:15;;;;;;;6.13;2.03;;;;;;;14.85;91.92;101522.22;5033389;28;20553;-77
2023/06/11 03:58:41;;;;;;;7.00;2.33;;;;;;;14.85;92.02;101528.47;5033571;28;20435;-77
2023/06/11 04:01:08;;;;;;;7.83;1.93;;;;;;;14.85;90.91;101527.69;5033231;28;20876;-77
2023/06/11 04:03:36;;;;;;;7.37;2.70;;;;;;;14.86;89.92;101532.81;5032905;28;20573;-77
2023/06/11 04:06:02;;;;;;;7.60;2.43;;;;;;;14.88;89.97;101533.34;5033168;28;20550;-77
2023/06/11 04:08:29;;;;;;;6.23;2.37;;;;;;;14.86;89.73;101535.53;5032935;28;20975;-77
2023/06/11 04:10:56;;;;;;;6.90;2.40;;;;;;;14.91;90.74;101531.09;5032981;28;20479;-77
2023/06/11 04:13:22;;;;;;;6.80;2.13;;;;;;;14.92;90.43;101536.25;5033643;28;20467;-77
2023/06/11 04:15:49;;;;;;;7.77;2.37;;;;;;;14.98;91.89;101535.03;5036199;28;20550;-76
2023/06/11 04:18:16;;;;;;;9.90;2.23;;;;;;;15.01;92.56;101542.59;5036828;28;20479;-76
2023/06/11 04:20:44;;;;;;;5.90;2.00;;;;;;;15.02;91.49;101546.13;5036727;28;20459;-76
2023/06/11 04:23:11;;;;;;;6.13;2.27;;;;;;;15.03;90.50;101540.34;5036891;28;20477;-77
2023/06/11 04:25:39;;;;;;;6.30;2.10;;;;;;;15.04;90.21;101541.97;5036815;28;20467;-76
2023/06/11 04:28:07;;;;;;;7.07;2.30;;;;;;;15.07;90.07;101546.81;5036703;28;20952;-76
2023/06/11 04:30:34;;;;;;;6.63;2.33;;;;;;;15.08;89.53;101547.63;5036758;28;20447;-76
2023/06/11 04:33:03;;;;;;;8.63;2.70;;;;;;;15.14;89.94;101546.41;5036663;28;20451;-76
2023/06/11 04:35:34;;;;;;;6.67;2.33;;;;;;;15.20;90.03;101549.81;5036669;28;20869;-76
2023/06/11 04:38:02;;;;;;;7.53;2.67;;;;;;;15.27;91.08;101553.75;5036657;28;20519;-76
2023/06/11 04:40:30;;;;;;;11.80;2.77;;;;;;;15.29;89.53;101550.69;5036581;28;20439;-76
2023/06/11 04:42:57;;;;;;;5.73;1.43;;;;;;;15.35;89.76;101552.97;5036295;28;20447;-76
2023/06/11 04:45:26;;;;;;;5.70;1.90;;;;;;;15.41;89.03;101556.41;5036420;28;20497;-76
2023/06/11 04:47:54;;;;;;;8.27;2.50;;;;;;;15.48;89.39;101551.31;5036155;28;20516;-76
2023/06/11 04:50:21;;;;;;;7.47;1.93;;;;;;;15.52;88.44;101554.25;5036034;28;20880;-76
2023/06/11 04:52:51;;;;;;;7.20;2.70;;;;;;;15.56;88.42;101549.78;5036387;28;20438;-76
2023/06/11 04:55:21;;;;;;;6.73;1.77;;;;;;;15.59;89.15;101544.50;5036731;28;20791;-77
2023/06/11 04:57:49;;;;;;;6.00;1.83;;;;;;;15.66;88.22;101552.28;5036334;28;20478;-76
2023/06/11 05:00:17;;;;;;;6.10;1.97;;;;;;;15.75;88.03;101549.59;5035835;28;20534;-76
2023/06/11 05:02:44;;;;;;;6.37;2.03;;;;;;;15.80;86.76;101549.47;5035766;28;20446;-75
2023/06/11 05:05:11;;;;;;;7.53;2.13;;;;;;;15.85;86.21;101555.63;5036053;28;20487;-76
2023/06/11 05:07:38;;;;;;;6.10;1.87;;;;;;;15.93;85.54;101550.50;5036054;28;20501;-76
2023/06/11 05:10:06;;;;;;;6.67;2.17;;;;;;;16.00;85.10;101557.13;5035615;28;20956;-75
2023/06/11 05:12:34;;;;;;;6.40;2.57;;;;;;;16.04;82.77;101555.41;5035710;28;20561;-75
2023/06/11 05:15:00;;;;;;;7.00;2.00;;;;;;;16.11;81.60;101546.72;5035572;28;20594;-75
2023/06/11 05:17:27;;;;;;;6.47;1.73;;;;;;;16.21;81.62;101546.47;5035912;28;20509;-75
2023/06/11 05:19:54;;;;;;;5.30;1.33;;;;;;;16.23;80.53;101549.69;5035777;28;20863;-75
2023/06/11 05:22:20;;;;;;;5.50;1.77;;;;;;;16.30;80.13;101549.25;5035494;28;20522;-75
2023/06/11 05:24:47;;;;;;;6.60;1.80;;;;;;;16.34;73.60;101550.22;5035598;28;20598;-76
2023/06/11 05:27:14;;;;;;;8.83;1.83;;;;;;;16.49;76.42;101558.00;5034535;28;20470;-75
2023/06/11 05:29:42;;;;;;;7.03;2.10;;;;;;;16.59;76.56;101552.22;5035551;28;20497;-76
2023/06/11 05:32:09;;;;;;;6.20;1.53;;;;;;;16.66;76.54;101546.28;5035619;28;20435;-76
2023/06/11 05:34:37;;;;;;;10.40;1.87;;;;;;;16.71;75.88;101551.59;5034979;28;20478;-75
2023/06/11 05:37:04;;;;;;;6.50;2.03;;;;;;;16.78;74.28;101554.72;5035213;28;20524;-76
2023/06/11 05:39:31;;;;;;;6.50;1.97;;;;;;;16.86;73.72;101545.69;5035292;28;20436;-75
2023/06/11 05:41:57;;;;;;;7.47;2.20;;;;;;;16.97;74.31;101557.16;5035387;28;20436;-75
2023/06/11 05:44:24;;;;;;;6.60;1.50;;;;;;;17.10;73.90;101552.66;5034921;28;20491;-75
2023/06/11 05:46:52;;;;;;;5.60;1.57;;;;;;;17.18;75.56;101540.91;5035374;28;20530;-76
2023/06/11 05:49:18;;;;;;;7.00;1.70;;;;;;;17.22;73.88;101552.00;5035273;28;20534;-76
2023/06/11 05:51:45;;;;;;;7.80;1.93;;;;;;;17.26;73.10;101553.78;5034892;28;20538;-76
2023/06/11 05:54:12;;;;;;;6.20;1.77;;;;;;;17.31;73.14;101555.53;5035192;28;20538;-76
2023/06/11 05:56:38;;;;;;;7.23;1.80;;;;;;;17.37;73.01;101554.28;5035176;28;20526;-76
2023/06/11 05:59:05;;;;;;;5.53;1.63;;;;;;;17.46;72.62;101559.75;5035159;28;20874;-76
2023/06/11 06:01:33;;;;;;;10.20;2.03;;;;;;;17.52;72.24;101561.97;5035095;28;20538;-76
2023/06/11 06:04:00;;;;;;;7.30;1.63;;;;;;;17.61;70.56;101564.72;5034892;28;20483;-76
2023/06/11 06:06:29;;;;;;;6.20;1.83;;;;;;;17.71;67.79;101569.88;5034926;28;20542;-76
2023/06/11 06:08:56;;;;;;;6.10;1.77;;;;;;;17.85;69.99;101570.53;5034632;28;20941;-77
2023/06/11 06:11:23;;;;;;;7.97;2.20;;;;;;;17.95;70.08;101569.34;5034881;28;20447;-77
2023/06/11 06:13:49;;;;;;;5.23;1.47;;;;;;;18.04;69.73;101567.41;5036158;28;20459;-77
2023/06/11 06:16:16;;;;;;;7.87;2.27;;;;;;;18.11;68.46;101569.66;5035529;28;20505;-77
2023/06/11 06:18:44;;;;;;;7.60;2.30;;;;;;;18.20;65.96;101570.41;5035077;28;20477;-77
2023/06/11 06:21:12;;;;;;;8.20;1.90;;;;;;;18.30;65.89;101570.06;5034826;28;20897;-76
2023/06/11 06:23:38;;;;;;;5.17;1.40;;;;;;;18.43;65.97;101570.16;5034720;28;20502;-77
2023/06/11 06:26:05;;;;;;;6.53;1.90;;;;;;;18.50;65.72;101573.97;5034902;28;20494;-76
2023/06/11 06:28:34;;;;;;;7.57;1.93;;;;;;;18.57;63.46;101563.31;5034623;28;20551;-76
2023/06/11 06:31:02;;;;;;;5.60;1.53;;;;;;;18.66;64.47;101563.25;5034742;28;20462;-76
2023/06/11 06:33:30;;;;;;;5.10;1.50;;;;;;;18.74;64.10;101556.16;5034533;28;20462;-76
2023/06/11 06:35:57;;;;;;;5.43;1.70;;;;;;;18.81;62.67;101570.94;5034049;28;20525;-76
2023/06/11 06:38:25;;;;;;;9.43;1.80;;;;;;;18.89;63.04;101561.03;5033965;28;20512;-76
2023/06/11 06:40:51;;;;;;;9.10;2.23;;;;;;;18.95;63.88;101561.63;5034194;28;20526;-76
2023/06/11 06:43:18;;;;;;;6.63;2.10;;;;;;;19.00;62.41;101565.00;5033881;28;20537;-77
2023/06/11 06:45:45;;;;;;;7.63;2.13;;;;;;;19.06;62.78;101551.88;5033794;28;20540;-76
2023/06/11 06:48:11;;;;;;;7.90;2.17;;;;;;;19.18;61.69;101567.63;5034124;28;20443;-76
2023/06/11 06:50:38;;;;;;;5.63;1.40;;;;;;;19.28;60.03;101568.03;5033989;28;20534;-76
2023/06/11 06:53:05;;;;;;;5.97;1.73;;;;;;;19.33;59.34;101567.81;5033880;28;20463;-76
2023/06/11 06:55:33;;;;;;;5.87;1.93;;;;;;;19.42;60.16;101576.78;5033943;28;21007;-76
2023/06/11 06:58:00;;;;;;;6.83;1.83;;;;;;;19.50;60.24;101575.09;5034171;28;20638;-77
2023/06/11 07:00:26;;;;;;;7.10;2.00;;;;;;;19.62;59.21;101569.69;5033893;28;20804;-76
2023/06/11 07:02:53;;;;;;;7.20;2.10;;;;;;;19.67;59.97;101563.19;5034472;28;20529;-76
2023/06/11 07:05:20;;;;;;;6.80;1.97;;;;;;;19.76;60.22;101569.38;5034053;28;20859;-77
2023/06/11 07:07:46;;;;;;;6.37;1.87;;;;;;;19.77;59.49;101568.25;5034002;28;20490;-76
2023/06/11 07:10:13;;;;;;;5.53;1.57;;;;;;;19.86;58.85;101570.91;5034039;28;20486;-77
2023/06/11 07:12:41;;;;;;;6.53;1.80;;;;;;;19.91;59.38;101574.22;5034405;28;20501;-77
2023/06/11 07:15:08;;;;;;;6.27;2.00;;;;;;;20.01;59.61;101569.44;5034503;28;20502;-77
2023/06/11 07:17:35;;;;;;;6.17;1.60;;;;;;;20.08;57.03;101569.69;5033924;28;20486;-76
2023/06/11 07:20:02;;;;;;;5.53;1.40;;;;;;;20.09;56.94;101571.28;5033731;28;20490;-77
2023/06/11 07:22:28;;;;;;;5.63;1.93;;;;;;;20.14;57.69;101573.81;5034047;28;21027;-77
2023/06/11 07:24:56;;;;;;;6.80;1.87;;;;;;;20.18;57.24;101569.22;5034193;28;20498;-77
2023/06/11 07:27:22;;;;;;;8.27;1.50;;;;;;;20.30;56.13;101573.97;5034081;28;20448;-76
2023/06/11 07:29:50;;;;;;;5.00;1.40;;;;;;;20.34;56.12;101577.63;5033572;28;20533;-76
2023/06/11 07:32:17;;;;;;;7.63;1.50;;;;;;;20.39;55.48;101580.94;5033328;28;20961;-77
2023/06/11 07:34:44;;;;;;;6.00;1.83;;;;;;;20.51;55.94;101579.41;5032856;28;20532;-76
2023/06/11 07:37:10;;;;;;;6.23;1.80;;;;;;;20.57;55.60;101581.56;5033584;28;20447;-76
2023/06/11 07:39:37;;;;;;;5.40;1.47;;;;;;;20.65;55.68;101577.09;5033418;28;20451;-76
2023/06/11 07:42:05;;;;;;;6.30;1.60;;;;;;;20.73;56.06;101578.91;5033186;28;20493;-76
2023/06/11 07:44:32;;;;;;;5.90;1.90;;;;;;;20.82;55.17;101581.56;5032950;28;20873;-76
2023/06/11 07:47:00;;;;;;;5.43;1.53;;;;;;;20.91;55.30;101579.47;5034033;28;20455;-76
2023/06/11 07:49:27;;;;;;;5.47;1.50;;;;;;;20.96;53.87;101586.69;5034665;28;20438;-76
2023/06/11 07:51:53;;;;;;;5.13;1.60;;;;;;;21.05;54.20;101588.16;5037421;28;20554;-76
2023/06/11 07:54:20;;;;;;;6.07;2.27;;;;;;;21.06;53.64;101594.47;5037084;28;20822;-76
2023/06/11 07:56:47;;;;;;;9.87;1.70;;;;;;;21.16;53.85;101583.78;5037077;28;21034;-77
2023/06/11 07:59:15;;;;;;;6.60;1.87;;;;;;;21.24;55.24;101581.22;5037029;28;20534;-76
2023/06/11 08:01:41;;;;;;;6.37;1.97;;;;;;;21.30;54.37;101582.59;5037037;28;20954;-76
2023/06/11 08:04:09;;;;;;;6.47;2.17;;;;;;;21.29;52.74;101576.25;5036967;28;20518;-76
2023/06/11 08:06:37;;;;;;;5.93;2.00;;;;;;;21.36;53.97;101573.75;5037103;28;20522;-76
2023/06/11 08:09:04;;;;;;;6.20;1.83;;;;;;;21.47;54.18;101573.25;5036919;28;20541;-76
2023/06/11 08:11:30;;;;;;;5.83;1.80;;;;;;;21.57;54.07;101572.75;5036761;28;20940;-76
2023/06/11 08:13:57;;;;;;;5.50;1.60;;;;;;;21.63;54.33;101566.63;5036969;28;20443;-77
2023/06/11 08:16:24;;;;;;;8.17;2.17;;;;;;;21.74;53.99;101575.22;5037051;28;20435;-76
2023/06/11 08:18:50;;;;;;;5.60;1.67;;;;;;;21.88;53.97;101567.31;5036845;28;20956;-76
2023/06/11 08:21:18;;;;;;;4.97;1.40;;;;;;;22.05;53.65;101568.94;5037040;28;20465;-77
2023/06/11 08:23:45;;;;;;;5.67;1.70;;;;;;;22.13;52.98;101572.69;5036814;28;20449;-76
2023/06/11 08:26:12;;;;;;;6.80;1.97;;;;;;;22.20;52.07;101572.88;5036408;28;20517;-76
2023/06/11 08:28:38;;;;;;;11.03;2.50;;;;;;;22.26;52.14;101563.16;5036764;28;20439;-75
2023/06/11 08:31:05;;;;;;;5.13;1.53;;;;;;;22.35;52.49;101563.78;5036694;28;20849;-76
2023/06/11 08:33:33;;;;;;;6.03;2.00;;;;;;;22.45;52.89;101572.69;5036458;28;20936;-77
2023/06/11 08:35:59;;;;;;;5.97;2.07;;;;;;;22.54;52.70;101565.03;5036172;28;20470;-76
2023/06/11 08:38:28;;;;;;;6.00;1.70;;;;;;;22.66;51.81;101564.88;5036634;28;20501;-77
2023/06/11 08:40:55;;;;;;;6.50;1.63;;;;;;;22.76;51.04;101560.78;5036533;28;20443;-76
2023/06/11 08:43:21;;;;;;;7.50;2.20;;;;;;;22.85;50.72;101569.69;5036530;28;20435;-75
2023/06/11 08:45:49;;;;;;;9.30;2.07;;;;;;;22.91;50.56;101566.28;5036298;28;20521;-76
2023/06/11 08:48:20;;;;;;;6.30;2.00;;;;;;;23.02;49.68;101560.19;5036151;28;20526;-76
2023/06/11 08:50:50;;;;;;;6.67;1.90;;;;;;;23.04;51.45;101571.69;5036184;28;20427;-77
2023/06/11 08:53:17;;;;;;;5.50;1.77;;;;;;;23.13;51.44;101567.56;5035870;28;20484;-75
2023/06/11 08:55:45;;;;;;;10.90;2.70;;;;;;;23.22;49.52;101564.56;5035947;28;20489;-75
2023/06/11 08:58:13;;;;;;;5.60;1.93;;;;;;;23.26;48.41;101567.41;5036265;28;20820;-76
2023/06/11 09:00:40;;;;;;;5.83;1.90;;;;;;;23.35;49.65;101563.28;5035964;28;20903;-76
2023/06/11 09:03:08;;;;;;;8.03;1.80;;;;;;;23.42;48.30;101565.38;5035805;28;20502;-76
2023/06/11 09:05:34;;;;;;;6.27;2.00;;;;;;;23.50;48.30;101569.06;5035601;28;20878;-76
2023/06/11 09:08:06;;;;;;;8.10;3.50;;;;;;;23.58;48.71;101559.75;5036107;28;20465;-76
2023/06/11 09:10:32;;;;;;;5.53;1.73;;;;;;;23.65;47.66;101554.41;5036005;28;20523;-76
2023/06/11 09:13:01;;;;;;;5.73;1.80;;;;;;;23.71;48.53;101557.66;5035927;28;20529;-76
2023/06/11 09:15:27;;;;;;;5.83;1.83;;;;;;;23.64;46.20;101556.38;5035811;28;20521;-76
2023/06/11 09:17:54;;;;;;;5.63;1.60;;;;;;;23.68;48.05;101545.34;5035796;28;20514;-76
2023/06/11 09:20:21;;;;;;;5.97;1.50;;;;;;;23.81;48.23;101549.53;5035836;28;20443;-76
2023/06/11 09:22:50;;;;;;;11.10;1.80;;;;;;;23.89;47.51;101556.00;5035819;28;20492;-76
2023/06/11 09:25:17;;;;;;;6.70;1.87;;;;;;;24.02;47.71;101557.44;5035608;28;20491;-76
2023/06/11 09:27:45;;;;;;;7.93;1.83;;;;;;;24.09;47.38;101559.53;5035450;28;20497;-76
2023/06/11 09:30:16;;;;;;;5.30;2.00;;;;;;;24.16;48.11;101559.63;5035684;28;20455;-76
2023/06/11 09:32:45;;;;;;;5.40;1.77;;;;;;;24.21;47.53;101553.00;5035342;28;20971;-76
2023/06/11 09:35:13;;;;;;;6.23;1.73;;;;;;;24.29;47.83;101555.50;5035087;28;20567;-76
2023/06/11 09:37:41;;;;;;;5.57;1.80;;;;;;;24.39;47.73;101545.78;5035092;28;20439;-75
2023/06/11 09:40:11;;;;;;;8.13;1.50;;;;;;;24.45;47.21;101560.94;5035174;28;20467;-76
2023/06/11 09:42:43;;;;;;;5.40;1.70;;;;;;;24.47;46.30;101544.72;5035442;28;20470;-76
2023/06/11 09:45:16;;;;;;;5.33;1.70;;;;;;;24.55;46.35;101551.19;5035255;28;20501;-76
2023/06/11 09:47:44;;;;;;;7.20;1.97;;;;;;;24.56;46.85;101541.69;5035448;28;20993;-76
2023/06/11 09:50:12;;;;;;;6.00;1.77;;;;;;;24.67;47.08;101543.47;5035172;28;20534;-76
2023/06/11 09:52:40;;;;;;;6.57;2.60;;;;;;;24.74;45.95;101551.06;5034873;28;20877;-76
2023/06/11 09:55:09;;;;;;;5.70;1.80;;;;;;;24.85;46.22;101549.25;5035067;28;20827;-75
2023/06/11 09:57:38;;;;;;;5.80;2.10;;;;;;;24.89;46.26;101546.53;5035164;28;20440;-75
2023/06/11 10:00:09;;;;;;;8.13;3.40;;;;;;;25.03;45.82;101546.72;5035061;28;20448;-76
2023/06/11 10:02:39;;;;;;;5.60;1.93;;;;;;;25.10;44.29;101551.56;5034645;28;20434;-76
2023/06/11 10:05:08;;;;;;;12.57;3.00;;;;;;;25.15;44.93;101549.28;5034998;28;20451;-76
2023/06/11 10:07:40;;;;;;;11.03;2.93;;;;;;;25.24;44.21;101546.22;5034922;28;20479;-75
2023/06/11 10:10:11;;;;;;;6.07;2.27;;;;;;;25.30;42.99;101543.91;5034841;28;20431;-75
2023/06/11 10:12:39;;;;;;;7.80;2.30;;;;;;;25.31;43.58;101551.03;5034172;28;20419;-75
2023/06/11 10:15:11;;;;;;;6.07;1.80;;;;;;;25.26;42.33;101538.31;5034650;28;20487;-75
2023/06/11 10:17:45;;;;;;;7.53;2.30;;;;;;;25.41;43.65;101542.84;5034737;28;20431;-76
2023/06/11 10:20:18;;;;;;;6.70;2.07;;;;;;;25.52;43.31;101536.63;5034474;28;20990;-76
2023/06/11 10:22:45;;;;;;;8.07;2.10;;;;;;;25.62;43.21;101541.47;5034339;28;20849;-75
2023/06/11 10:25:13;;;;;;;7.10;2.23;;;;;;;25.76;44.10;101524.97;5034516;28;20503;-76
2023/06/11 10:27:42;;;;;;;7.43;2.73;;;;;;;25.81;41.32;101535.75;5034537;28;20439;-75
2023/06/11 10:30:10;;;;;;;7.97;2.40;;;;;;;25.95;43.07;101545.41;5034599;28;20447;-76
2023/06/11 10:32:37;;;;;;;6.50;2.63;;;;;;;26.10;41.99;101525.69;5034393;28;20534;-75
2023/06/11 10:35:07;;;;;;;11.23;2.27;;;;;;;26.28;43.17;101528.59;5034358;28;20541;-75
2023/06/11 10:37:37;;;;;;;5.83;2.03;;;;;;;26.47;42.55;101537.88;5034134;28;20477;-75
2023/06/11 10:40:07;;;;;;;6.33;2.10;;;;;;;26.64;40.97;101535.22;5034236;28;20442;-76
2023/06/11 10:42:38;;;;;;;6.83;2.37;;;;;;;26.73;39.97;101529.31;5034255;28;20446;-75
2023/06/11 10:45:09;;;;;;;5.97;2.17;;;;;;;26.85;38.37;101531.75;5034161;28;20463;-74
2023/06/11 10:47:42;;;;;;;6.70;2.27;;;;;;;26.84;38.56;101535.75;5035832;28;20489;-76
2023/06/11 10:50:13;;;;;;;7.30;2.47;;;;;;;26.97;41.00;101529.84;5035423;28;20438;-76
2023/06/11 10:52:52;;;;;;;6.87;2.23;;;;;;;27.14;37.77;101531.94;5034153;28;20807;-75
2023/06/11 10:55:21;;;;;;;9.27;2.73;;;;;;;27.30;38.35;101526.00;5034214;28;20888;-75
2023/06/11 10:57:51;;;;;;;7.03;2.33;;;;;;;27.45;39.13;101519.31;5034021;28;20526;-75
2023/06/11 11:00:18;;;;;;;5.27;1.93;;;;;;;27.60;39.83;101520.13;5033965;28;20459;-76
2023/06/11 11:02:47;;;;;;;7.83;2.30;;;;;;;27.84;38.88;101526.94;5034028;28;20493;-75
2023/06/11 11:05:15;;;;;;;7.30;2.40;;;;;;;28.03;39.33;101526.56;5033829;28;20467;-76
2023/06/11 11:07:44;;;;;;;8.70;2.37;;;;;;;28.06;37.15;101522.16;5033936;28;20526;-75
2023/06/11 11:10:13;;;;;;;5.90;2.13;;;;;;;28.00;37.87;101527.34;5033734;28;20436;-75
2023/06/11 11:12:40;;;;;;;6.60;2.20;;;;;;;28.14;39.28;101513.41;5033771;28;20443;-75
2023/06/11 11:15:10;;;;;;;5.93;2.20;;;;;;;28.25;38.18;101532.13;5033383;28;20542;-75
2023/06/11 11:17:39;;;;;;;6.40;2.50;;;;;;;28.68;38.60;101524.47;5033671;28;20498;-75
2023/06/11 11:20:08;;;;;;;6.23;2.27;;;;;;;29.28;38.03;101523.47;5033281;28;20474;-75
2023/06/11 11:22:37;;;;;;;5.77;2.40;;;;;;;29.70;33.88;101530.00;5033342;28;20440;-75
2023/06/11 11:25:06;;;;;;;6.87;2.80;;;;;;;30.02;33.82;101524.19;5033420;28;20463;-75
2023/06/11 11:27:35;;;;;;;5.93;2.17;;;;;;;30.60;34.36;101513.28;5033442;28;20491;-75